Time;durP1;ratioP1;P1;durP2;ratioP2;P2;SDS_P1;SDS_P2;PMS_P1;PMS_P2;Temp;Humidity;BMP_temperature;BMP_pressure;BME280_temperature;BME280_humidity;BME280_pressure;Samples;Min_cycle;Max_cycle;Signal;HPM_P1;HPM_P2
2023/03/18 00:00:45;;;;;;;13.35;6.18;;;;;;;11.77;90.69;100699.66;5091372;28;20607;-65
2023/03/18 00:03:11;;;;;;;15.90;7.50;;;;;;;11.79;91.04;100696.81;5091445;28;20078;-66
2023/03/18 00:05:37;;;;;;;15.88;6.05;;;;;;;11.77;91.03;100699.66;5091271;28;20063;-65
2023/03/18 00:08:04;;;;;;;15.13;7.03;;;;;;;11.78;91.29;100690.59;5091331;28;20028;-66
2023/03/18 00:10:30;;;;;;;13.82;6.47;;;;;;;11.76;91.33;100673.16;5091491;28;20028;-65
2023/03/18 00:12:56;;;;;;;12.55;6.55;;;;;;;11.79;91.08;100681.59;5091232;28;20123;-65
2023/03/18 00:15:21;;;;;;;14.43;7.47;;;;;;;11.78;91.47;100674.59;5091442;28;20398;-65
2023/03/18 00:17:50;;;;;;;16.08;6.82;;;;;;;11.76;91.45;100681.16;5091137;28;20028;-66
2023/03/18 00:20:17;;;;;;;15.02;6.15;;;;;;;11.77;91.70;100680.16;5090982;28;20051;-65
2023/03/18 00:22:44;;;;;;;11.75;6.93;;;;;;;11.75;91.65;100680.34;5091188;28;20093;-66
2023/03/18 00:25:12;;;;;;;14.02;7.10;;;;;;;11.73;92.03;100678.91;5091029;28;20102;-65
2023/03/18 00:27:38;;;;;;;12.60;6.43;;;;;;;11.70;92.04;100682.81;5090947;28;20040;-65
2023/03/18 00:30:05;;;;;;;14.52;7.15;;;;;;;11.67;92.36;100685.91;5090904;28;20020;-65
2023/03/18 00:32:31;;;;;;;11.80;6.53;;;;;;;11.62;92.14;100688.38;5091293;28;20110;-65
2023/03/18 00:34:57;;;;;;;15.85;7.10;;;;;;;11.62;92.38;100699.88;5089624;28;20039;-66
2023/03/18 00:37:30;;;;;;;14.55;6.65;;;;;;;11.62;92.85;100701.75;5090734;28;20085;-65
2023/03/18 00:40:04;;;;;;;16.13;6.20;;;;;;;11.58;92.99;100706.69;5090702;28;20069;-66
2023/03/18 00:42:46;;;;;;;17.02;7.68;;;;;;;11.58;93.12;100701.34;5090697;28;20024;-65
2023/03/18 00:45:13;;;;;;;15.25;6.78;;;;;;;11.60;93.26;100709.13;5090849;28;20487;-66
2023/03/18 00:47:39;;;;;;;13.77;8.30;;;;;;;11.54;93.53;100701.97;5090536;28;20119;-65
2023/03/18 00:50:07;;;;;;;16.35;6.75;;;;;;;11.55;93.68;100699.09;5090482;28;20098;-65
2023/03/18 00:52:32;;;;;;;20.02;6.63;;;;;;;11.58;93.47;100700.50;5089920;28;20082;-65
2023/03/18 00:54:59;;;;;;;12.43;6.80;;;;;;;11.55;93.31;100704.44;5090247;28;20028;-66
2023/03/18 00:57:25;;;;;;;12.38;6.18;;;;;;;11.56;93.57;100708.75;5090391;28;20040;-65
2023/03/18 00:59:50;;;;;;;14.27;7.13;;;;;;;11.55;94.12;100717.78;5090211;28;20028;-66
2023/03/18 01:02:16;;;;;;;15.65;7.10;;;;;;;11.53;94.17;100713.69;5090329;28;20040;-66
2023/03/18 01:04:42;;;;;;;15.52;7.00;;;;;;;11.50;94.11;100712.25;5090181;28;20040;-66
2023/03/18 01:07:08;;;;;;;12.73;6.68;;;;;;;11.51;94.56;100715.72;5090335;28;20040;-66
2023/03/18 01:09:33;;;;;;;11.25;6.70;;;;;;;11.50;94.56;100717.59;5090161;28;20570;-66
2023/03/18 01:11:59;;;;;;;15.32;6.50;;;;;;;11.50;94.86;100708.72;5090089;28;20419;-66
2023/03/18 01:14:24;;;;;;;13.55;6.90;;;;;;;11.52;95.10;100725.38;5089920;28;20387;-65
2023/03/18 01:16:49;;;;;;;12.85;6.45;;;;;;;11.50;95.14;100714.06;5090122;28;20071;-66
2023/03/18 01:19:15;;;;;;;16.88;7.53;;;;;;;11.51;95.54;100715.72;5090550;28;20028;-65
2023/03/18 01:21:42;;;;;;;15.80;7.13;;;;;;;11.51;95.83;100721.06;5089965;28;20198;-66
2023/03/18 01:24:09;;;;;;;15.40;6.75;;;;;;;11.51;95.98;100716.53;5089823;28;20089;-66
2023/03/18 01:26:35;;;;;;;13.00;6.50;;;;;;;11.50;96.89;100711.41;5089882;28;20028;-65
2023/03/18 01:29:01;;;;;;;18.23;8.10;;;;;;;11.51;98.75;100718.41;5089887;28;20016;-66
2023/03/18 01:31:27;;;;;;;16.25;7.90;;;;;;;11.47;100.00;100717.97;5089812;28;20057;-65
2023/03/18 01:33:53;;;;;;;15.35;7.82;;;;;;;11.41;100.00;100719.63;5088353;28;20111;-66
2023/03/18 01:36:18;;;;;;;15.82;7.85;;;;;;;11.32;100.00;100712.84;5089620;28;20471;-66
2023/03/18 01:38:44;;;;;;;16.23;7.55;;;;;;;11.26;100.00;100710.97;5089569;28;20036;-66
2023/03/18 01:41:10;;;;;;;14.13;6.88;;;;;;;11.21;100.00;100709.94;5088228;28;20035;-66
2023/03/18 01:43:40;;;;;;;14.95;7.78;;;;;;;11.14;100.00;100702.78;5089443;28;20028;-66
2023/03/18 01:46:32;;;;;;;16.48;8.88;;;;;;;11.13;100.00;100708.31;5089467;28;20035;-66
2023/03/18 01:49:01;;;;;;;15.70;8.57;;;;;;;11.07;100.00;100709.94;5089626;28;20032;-65
2023/03/18 01:51:28;;;;;;;19.70;7.22;;;;;;;11.01;100.00;100701.94;5089899;28;20030;-66
2023/03/18 01:53:56;;;;;;;17.92;8.80;;;;;;;10.93;100.00;100697.63;5089369;28;20028;-65
2023/03/18 01:56:22;;;;;;;19.33;8.90;;;;;;;10.89;100.00;100702.53;5089325;28;20483;-65
2023/03/18 01:58:52;;;;;;;18.38;9.15;;;;;;;10.84;100.00;100712.97;5089272;28;20028;-65
2023/03/18 02:01:24;;;;;;;16.27;7.68;;;;;;;10.81;100.00;100708.03;5089388;28;20111;-66
2023/03/18 02:03:51;;;;;;;15.52;8.45;;;;;;;10.75;100.00;100707.00;5089043;28;20034;-65
2023/03/18 02:06:17;;;;;;;18.85;8.38;;;;;;;10.72;100.00;100701.25;5088413;28;20028;-65
2023/03/18 02:08:42;;;;;;;19.77;8.95;;;;;;;10.70;100.00;100705.97;5087771;28;20020;-65
2023/03/18 02:11:10;;;;;;;18.30;9.15;;;;;;;10.64;100.00;100702.28;5089099;28;20031;-66
2023/03/18 02:13:40;;;;;;;18.00;8.73;;;;;;;10.65;100.00;100714.56;5089106;28;20394;-65
2023/03/18 02:16:13;;;;;;;19.50;8.70;;;;;;;10.63;100.00;100710.47;5089068;28;20132;-65
2023/03/18 02:18:50;;;;;;;18.48;9.00;;;;;;;10.61;100.00;100716.00;5088959;28;20074;-65
2023/03/18 02:21:25;;;;;;;18.88;8.57;;;;;;;10.60;100.00;100719.69;5087863;28;20058;-65
2023/03/18 02:24:15;;;;;;;16.85;8.90;;;;;;;10.56;100.00;100721.13;5088882;28;20052;-65
2023/03/18 02:26:52;;;;;;;15.80;9.15;;;;;;;10.56;100.00;100707.78;5088950;28;20471;-65
2023/03/18 02:29:20;;;;;;;19.23;10.02;;;;;;;10.55;100.00;100710.63;5088847;28;20149;-65
2023/03/18 02:31:47;;;;;;;21.33;9.32;;;;;;;10.53;100.00;100714.34;5088857;28;20111;-65
2023/03/18 02:34:14;;;;;;;18.55;8.65;;;;;;;10.54;100.00;100712.50;5088952;28;20028;-66
2023/03/18 02:36:40;;;;;;;20.50;9.85;;;;;;;10.55;100.00;100718.63;5088894;28;20020;-65
2023/03/18 02:39:06;;;;;;;17.80;9.60;;;;;;;10.54;100.00;100728.50;5087398;28;20535;-65
2023/03/18 02:41:34;;;;;;;23.15;9.70;;;;;;;10.53;100.00;100725.00;5088829;28;20035;-65
2023/03/18 02:43:59;;;;;;;30.77;10.98;;;;;;;10.52;100.00;100731.34;5088697;28;20044;-66
2023/03/18 02:46:46;;;;;;;18.88;9.80;;;;;;;10.53;100.00;100735.66;5069418;28;20090;-65
2023/03/18 02:49:13;;;;;;;19.90;9.32;;;;;;;10.52;100.00;100739.34;5088710;28;20027;-65
2023/03/18 02:51:39;;;;;;;20.02;10.23;;;;;;;10.50;100.00;100740.56;5088767;28;20059;-65
2023/03/18 02:54:09;;;;;;;22.75;11.00;;;;;;;10.51;100.00;100742.22;5088752;28;20028;-65
2023/03/18 02:56:35;;;;;;;19.88;10.13;;;;;;;10.48;100.00;100753.28;5088658;28;20032;-65
2023/03/18 02:59:01;;;;;;;19.23;9.93;;;;;;;10.42;100.00;100746.88;5088669;28;20056;-65
2023/03/18 03:01:26;;;;;;;19.95;10.75;;;;;;;10.34;100.00;100730.25;5088729;28;20062;-65
2023/03/18 03:03:52;;;;;;;21.73;11.00;;;;;;;10.41;100.00;100749.75;5088816;28;20043;-65
2023/03/18 03:06:17;;;;;;;19.60;10.32;;;;;;;10.41;100.00;100753.25;5088664;28;20108;-65
2023/03/18 03:08:44;;;;;;;21.23;10.10;;;;;;;10.40;100.00;100753.44;5089033;28;20501;-65
2023/03/18 03:11:10;;;;;;;19.90;10.32;;;;;;;10.37;100.00;100749.31;5088451;28;20471;-65
2023/03/18 03:13:38;;;;;;;20.58;11.45;;;;;;;10.39;100.00;100757.94;5088615;28;20036;-65
2023/03/18 03:16:03;;;;;;;21.80;10.63;;;;;;;10.38;100.00;100763.50;5089155;28;20071;-65
2023/03/18 03:18:29;;;;;;;19.08;11.00;;;;;;;10.37;100.00;100762.66;5090811;28;20074;-65
2023/03/18 03:20:54;;;;;;;18.85;10.18;;;;;;;10.38;100.00;100769.66;5092211;28;20058;-65
2023/03/18 03:23:20;;;;;;;22.23;11.95;;;;;;;10.37;100.00;100770.66;5091979;28;20052;-66
2023/03/18 03:25:45;;;;;;;23.95;12.57;;;;;;;10.34;100.00;100770.22;5091793;28;20032;-65
2023/03/18 03:28:13;;;;;;;22.00;11.63;;;;;;;10.35;100.00;100772.72;5092077;28;20028;-65
2023/03/18 03:30:38;;;;;;;26.35;11.77;;;;;;;10.35;100.00;100774.53;5092060;28;20055;-65
2023/03/18 03:33:04;;;;;;;21.90;12.13;;;;;;;10.34;100.00;100772.91;5091957;28;20082;-66
2023/03/18 03:35:30;;;;;;;22.48;10.88;;;;;;;10.34;100.00;100772.91;5091851;28;20036;-65
2023/03/18 03:37:55;;;;;;;19.55;12.43;;;;;;;10.36;100.00;100776.19;5091995;28;20085;-66
2023/03/18 03:40:21;;;;;;;20.13;9.73;;;;;;;10.35;100.00;100783.38;5091636;28;20036;-66
2023/03/18 03:42:47;;;;;;;22.00;11.35;;;;;;;10.34;100.00;100783.56;5091742;28;20103;-65
2023/03/18 03:45:15;;;;;;;21.17;12.07;;;;;;;10.35;100.00;100780.72;5091784;28;20558;-65
2023/03/18 03:47:42;;;;;;;20.55;10.40;;;;;;;10.33;100.00;100774.75;5091588;28;20028;-65
2023/03/18 03:50:10;;;;;;;23.00;11.50;;;;;;;10.35;100.00;100780.72;5091551;28;20020;-65
2023/03/18 03:52:36;;;;;;;24.60;11.88;;;;;;;10.32;100.00;100781.06;5091539;28;20024;-65
2023/03/18 03:55:02;;;;;;;24.67;10.77;;;;;;;10.28;100.00;100782.50;5091403;28;20103;-66
2023/03/18 03:57:28;;;;;;;22.45;11.77;;;;;;;10.31;100.00;100779.44;5091661;28;20028;-65
2023/03/18 03:59:55;;;;;;;27.10;11.77;;;;;;;10.31;100.00;100784.78;5091460;28;20028;-65
2023/03/18 04:02:22;;;;;;;20.38;11.25;;;;;;;10.29;100.00;100787.63;5091343;28;20062;-65
2023/03/18 04:04:48;;;;;;;27.65;13.18;;;;;;;10.30;100.00;100791.13;5090071;28;20040;-65
2023/03/18 04:07:14;;;;;;;27.20;12.73;;;;;;;10.31;100.00;100790.09;5071941;28;20036;-65
2023/03/18 04:09:40;;;;;;;23.25;11.95;;;;;;;10.31;100.00;100795.44;5071845;28;20475;-65
2023/03/18 04:12:06;;;;;;;23.17;12.40;;;;;;;10.29;100.00;100794.81;5071864;28;20028;-65
2023/03/18 04:14:32;;;;;;;20.23;10.77;;;;;;;10.29;100.00;100802.81;5071944;28;20033;-65
2023/03/18 04:16:59;;;;;;;21.25;11.48;;;;;;;10.29;100.00;100792.94;5071812;28;20558;-65
2023/03/18 04:19:26;;;;;;;20.02;9.52;;;;;;;10.29;100.00;100798.28;5071726;28;20522;-65
2023/03/18 04:21:52;;;;;;;20.73;11.77;;;;;;;10.29;100.00;100797.47;5089552;28;20020;-65
2023/03/18 04:24:19;;;;;;;23.77;10.95;;;;;;;10.29;100.00;100798.28;5090754;28;20059;-65
2023/03/18 04:26:44;;;;;;;24.45;12.52;;;;;;;10.25;100.00;100790.88;5090840;28;20395;-65
2023/03/18 04:29:10;;;;;;;26.00;14.13;;;;;;;10.26;100.00;100795.16;5089955;28;20023;-65
2023/03/18 04:31:36;;;;;;;19.80;12.02;;;;;;;10.25;100.00;100791.69;5090789;28;20039;-65
2023/03/18 04:34:01;;;;;;;23.55;11.75;;;;;;;10.24;100.00;100797.19;5090750;28;20020;-65
2023/03/18 04:36:27;;;;;;;23.13;12.65;;;;;;;10.25;100.00;100788.19;5090648;28;20032;-65
2023/03/18 04:38:53;;;;;;;24.92;13.02;;;;;;;10.23;100.00;100796.38;5090652;28;20105;-65
2023/03/18 04:41:19;;;;;;;22.05;11.38;;;;;;;10.23;100.00;100795.56;5090607;28;20020;-66
2023/03/18 04:43:45;;;;;;;25.05;13.02;;;;;;;10.24;100.00;100799.88;5090602;28;20505;-65
2023/03/18 04:46:10;;;;;;;26.10;13.07;;;;;;;10.25;100.00;100796.19;5090472;28;20111;-65
2023/03/18 04:48:39;;;;;;;23.58;13.05;;;;;;;10.24;100.00;100799.88;5090550;28;20066;-65
2023/03/18 04:51:07;;;;;;;21.55;12.95;;;;;;;10.25;100.00;100798.88;5090382;28;20738;-65
2023/03/18 04:53:33;;;;;;;21.70;11.98;;;;;;;10.25;100.00;100801.53;5090554;28;20165;-65
2023/03/18 04:55:59;;;;;;;27.42;13.35;;;;;;;10.24;100.00;100794.53;5090462;28;20416;-65
2023/03/18 04:58:25;;;;;;;26.15;14.50;;;;;;;10.25;100.00;100804.19;5070751;28;20036;-65
2023/03/18 05:00:51;;;;;;;26.70;13.07;;;;;;;10.24;100.00;100807.84;5070845;28;20111;-65
2023/03/18 05:03:16;;;;;;;23.40;11.70;;;;;;;10.25;100.00;100804.19;5070855;28;20047;-65
2023/03/18 05:05:42;;;;;;;22.48;12.05;;;;;;;10.23;100.00;100804.38;5070782;28;20032;-65
2023/03/18 05:08:09;;;;;;;22.63;13.77;;;;;;;10.22;100.00;100809.91;5070802;28;20098;-65
2023/03/18 05:10:34;;;;;;;23.13;11.60;;;;;;;10.21;100.00;100810.91;5070481;28;20060;-65
2023/03/18 05:13:00;;;;;;;27.58;14.43;;;;;;;10.22;100.00;100813.41;5070592;28;20071;-65
2023/03/18 05:15:26;;;;;;;23.27;11.70;;;;;;;10.21;100.00;100821.59;5070561;28;20098;-66
2023/03/18 05:17:52;;;;;;;23.27;11.57;;;;;;;10.21;100.00;100825.06;5070590;28;20037;-65
2023/03/18 05:20:18;;;;;;;26.38;12.57;;;;;;;10.22;100.00;100823.25;5070234;28;20510;-66
2023/03/18 05:22:43;;;;;;;23.00;12.23;;;;;;;10.19;100.00;100826.28;5070286;28;20082;-65
2023/03/18 05:25:10;;;;;;;24.55;11.57;;;;;;;10.21;100.00;100826.91;5070380;28;20535;-65
2023/03/18 05:27:36;;;;;;;24.45;12.80;;;;;;;10.20;100.00;100826.09;5070433;28;20029;-65
2023/03/18 05:30:03;;;;;;;24.38;12.38;;;;;;;10.17;100.00;100823.81;5089529;28;20031;-65
2023/03/18 05:32:30;;;;;;;24.80;13.18;;;;;;;10.20;100.00;100822.63;5070201;28;20120;-65
2023/03/18 05:34:57;;;;;;;26.88;14.27;;;;;;;10.20;100.00;100820.75;5089598;28;20062;-65
2023/03/18 05:37:22;;;;;;;23.63;12.60;;;;;;;10.20;100.00;100817.28;5089537;28;20057;-65
2023/03/18 05:39:48;;;;;;;25.83;13.23;;;;;;;10.20;100.00;100815.44;5087743;28;20040;-65
2023/03/18 05:42:14;;;;;;;25.85;12.13;;;;;;;10.19;100.00;100818.28;5089477;28;20032;-65
2023/03/18 05:44:39;;;;;;;24.38;11.40;;;;;;;10.20;100.00;100825.28;5089543;28;20028;-65
2023/03/18 05:47:05;;;;;;;24.75;13.27;;;;;;;10.10;100.00;100820.28;5089423;28;20020;-65
2023/03/18 05:49:31;;;;;;;26.33;11.63;;;;;;;10.12;100.00;100818.25;5089044;28;20024;-65
2023/03/18 05:51:56;;;;;;;26.42;14.00;;;;;;;10.06;100.00;100824.34;5089152;28;20115;-65
2023/03/18 05:54:22;;;;;;;28.60;14.43;;;;;;;9.98;100.00;100830.66;5089182;28;20115;-65
2023/03/18 05:56:50;;;;;;;23.85;11.82;;;;;;;9.97;100.00;100844.97;5088981;28;20402;-72
2023/03/18 05:59:15;;;;;;;24.65;13.00;;;;;;;9.97;100.00;100831.66;5088924;28;20032;-72
2023/03/18 06:01:41;;;;;;;22.55;12.02;;;;;;;10.02;100.00;100833.75;5089042;28;20475;-72
2023/03/18 06:04:07;;;;;;;24.45;13.55;;;;;;;10.08;100.00;100843.63;5088970;28;20043;-72
2023/03/18 06:06:34;;;;;;;20.67;10.90;;;;;;;10.09;100.00;100851.44;5089093;28;20487;-72
2023/03/18 06:09:00;;;;;;;22.33;12.63;;;;;;;10.12;100.00;100858.22;5069752;28;20495;-72
2023/03/18 06:11:25;;;;;;;22.98;12.07;;;;;;;10.15;100.00;100859.69;5088750;28;20040;-72
2023/03/18 06:13:51;;;;;;;22.92;12.35;;;;;;;10.14;100.00;100852.69;5088885;28;20047;-72
2023/03/18 06:16:16;;;;;;;21.08;10.65;;;;;;;10.14;100.00;100858.88;5088873;28;20035;-72
2023/03/18 06:18:41;;;;;;;27.20;12.57;;;;;;;10.18;100.00;100867.28;5088818;28;20032;-72
2023/03/18 06:21:08;;;;;;;22.83;12.48;;;;;;;10.18;100.00;100872.63;5088924;28;20032;-72
2023/03/18 06:23:34;;;;;;;21.60;11.18;;;;;;;10.17;100.00;100873.66;5088543;28;20063;-72
2023/03/18 06:26:00;;;;;;;28.88;12.05;;;;;;;10.17;100.00;100873.66;5088674;28;20039;-72
2023/03/18 06:28:26;;;;;;;24.92;11.90;;;;;;;10.15;100.00;100863.16;5088857;28;20623;-72
2023/03/18 06:30:56;;;;;;;28.58;12.60;;;;;;;10.13;100.00;100857.19;5088603;28;20059;-72
2023/03/18 06:33:24;;;;;;;22.40;10.93;;;;;;;10.20;100.00;100862.59;5088699;28;20020;-72
2023/03/18 06:35:50;;;;;;;22.23;10.00;;;;;;;10.28;100.00;100865.97;5088660;28;20032;-72
2023/03/18 06:38:16;;;;;;;18.73;10.27;;;;;;;10.35;100.00;100860.69;5089014;28;20085;-72
2023/03/18 06:40:43;;;;;;;22.45;11.60;;;;;;;10.43;100.00;100851.72;5088741;28;20336;-72
2023/03/18 06:43:09;;;;;;;23.08;11.57;;;;;;;10.49;100.00;100846.41;5088681;28;20047;-72
2023/03/18 06:45:35;;;;;;;22.88;10.90;;;;;;;10.60;100.00;100860.22;5089022;28;20466;-72
2023/03/18 06:48:00;;;;;;;21.42;10.90;;;;;;;10.61;100.00;100857.38;5088905;28;20047;-72
2023/03/18 06:50:26;;;;;;;18.67;10.13;;;;;;;10.57;100.00;100864.09;5088671;28;20024;-72
2023/03/18 06:52:52;;;;;;;22.85;10.73;;;;;;;10.60;100.00;100862.88;5092307;28;20032;-72
2023/03/18 06:55:18;;;;;;;24.38;11.73;;;;;;;10.55;100.00;100867.97;5092641;28;20055;-72
2023/03/18 06:57:44;;;;;;;20.30;10.25;;;;;;;10.57;100.00;100874.75;5092533;28;20149;-72
2023/03/18 07:00:11;;;;;;;27.70;12.00;;;;;;;10.55;100.00;100873.31;5092387;28;20052;-72
2023/03/18 07:02:36;;;;;;;21.13;12.00;;;;;;;10.58;100.00;100886.25;5092390;28;20636;-72
2023/03/18 07:05:03;;;;;;;19.08;10.07;;;;;;;10.58;100.00;100884.41;5092492;28;20128;-72
2023/03/18 07:07:28;;;;;;;20.90;9.10;;;;;;;10.65;100.00;100895.13;5092396;28;20028;-72
2023/03/18 07:09:54;;;;;;;20.75;8.95;;;;;;;10.68;100.00;100882.19;5092231;28;20024;-72
2023/03/18 07:12:19;;;;;;;20.35;10.52;;;;;;;10.75;100.00;100890.25;5092270;28;20039;-72
2023/03/18 07:14:45;;;;;;;21.58;10.77;;;;;;;10.79;100.00;100888.81;5092087;28;20038;-72
2023/03/18 07:17:11;;;;;;;19.88;11.27;;;;;;;10.86;100.00;100895.03;5092177;28;20032;-72
2023/03/18 07:19:36;;;;;;;21.35;10.73;;;;;;;11.05;100.00;100904.16;5091957;28;20024;-72
2023/03/18 07:22:03;;;;;;;19.60;9.52;;;;;;;11.20;100.00;100906.69;5092368;28;20395;-72
2023/03/18 07:24:29;;;;;;;20.23;10.43;;;;;;;11.27;100.00;100904.06;5092241;28;20125;-71
2023/03/18 07:26:55;;;;;;;19.23;9.82;;;;;;;11.32;100.00;100906.94;5090749;28;20032;-72
2023/03/18 07:29:20;;;;;;;22.73;10.70;;;;;;;11.30;100.00;100914.34;5091984;28;20481;-72
2023/03/18 07:31:46;;;;;;;22.45;10.88;;;;;;;11.27;100.00;100915.56;5092282;28;20028;-71
2023/03/18 07:34:13;;;;;;;20.35;12.13;;;;;;;11.30;100.00;100912.47;5091964;28;20024;-72
2023/03/18 07:36:40;;;;;;;20.30;10.20;;;;;;;11.44;100.00;100917.88;5091914;28;20539;-72
2023/03/18 07:39:09;;;;;;;19.70;9.68;;;;;;;11.56;100.00;100919.75;5091831;28;20023;-72
2023/03/18 07:41:34;;;;;;;22.20;11.30;;;;;;;11.68;100.00;100925.31;5072460;28;20785;-72
2023/03/18 07:43:59;;;;;;;20.40;10.75;;;;;;;11.72;100.00;100925.75;5072220;28;20130;-72
2023/03/18 07:46:26;;;;;;;21.83;10.95;;;;;;;11.94;100.00;100923.75;5072206;28;20127;-72
2023/03/18 07:48:51;;;;;;;19.88;10.23;;;;;;;12.20;100.00;100928.31;5072402;28;20028;-72
2023/03/18 07:51:17;;;;;;;21.02;10.13;;;;;;;12.52;100.00;100931.97;5072204;28;20017;-72
2023/03/18 07:53:43;;;;;;;19.92;10.88;;;;;;;12.82;100.00;100931.53;5070923;28;20048;-72
2023/03/18 07:56:09;;;;;;;20.83;10.23;;;;;;;13.03;100.00;100939.31;5072304;28;20024;-72
2023/03/18 07:58:36;;;;;;;19.67;10.32;;;;;;;13.04;100.00;100942.81;5071941;28;20162;-72
2023/03/18 08:01:02;;;;;;;21.73;10.25;;;;;;;13.00;100.00;100945.09;5072106;28;20032;-72
2023/03/18 08:03:27;;;;;;;18.35;10.40;;;;;;;12.84;100.00;100956.25;5090034;28;20032;-72
2023/03/18 08:05:53;;;;;;;19.52;8.90;;;;;;;12.87;100.00;100945.13;5091308;28;20119;-72
2023/03/18 08:08:19;;;;;;;20.30;10.23;;;;;;;13.11;100.00;100949.78;5090665;28;20024;-73
2023/03/18 08:10:44;;;;;;;18.15;10.20;;;;;;;13.41;100.00;100949.28;5071895;28;20036;-72
2023/03/18 08:13:11;;;;;;;18.75;10.15;;;;;;;13.68;100.00;100952.66;5071359;28;20035;-72
2023/03/18 08:15:37;;;;;;;19.35;9.30;;;;;;;13.79;100.00;100953.84;5076226;28;20036;-66
2023/03/18 08:18:03;;;;;;;22.92;9.43;;;;;;;13.79;100.00;100949.31;5091018;28;20394;-72
2023/03/18 08:20:28;;;;;;;23.50;12.18;;;;;;;13.83;100.00;100941.63;5090983;28;20467;-71
2023/03/18 08:22:54;;;;;;;20.15;10.32;;;;;;;13.79;100.00;100949.31;5090223;28;20035;-72
2023/03/18 08:25:21;;;;;;;16.67;8.65;;;;;;;13.62;100.00;100934.75;5090828;28;20096;-72
2023/03/18 08:27:47;;;;;;;22.20;10.82;;;;;;;13.45;100.00;100939.78;5090672;28;20028;-72
2023/03/18 08:30:13;;;;;;;19.80;9.25;;;;;;;13.43;100.00;100939.19;5090366;28;20024;-71
2023/03/18 08:32:39;;;;;;;18.30;8.77;;;;;;;13.45;100.00;100939.78;5090792;28;20028;-72
2023/03/18 08:35:05;;;;;;;16.30;8.60;;;;;;;13.36;100.00;100936.56;5071420;28;20380;-71
2023/03/18 08:37:30;;;;;;;14.95;8.55;;;;;;;13.25;100.00;100937.16;5071452;28;20479;-72
2023/03/18 08:39:56;;;;;;;15.30;8.02;;;;;;;13.20;100.00;100942.31;5070973;28;20510;-73
2023/03/18 08:42:21;;;;;;;17.92;9.40;;;;;;;13.17;100.00;100940.06;5070646;28;21109;-73
2023/03/18 08:44:47;;;;;;;22.88;10.00;;;;;;;13.14;100.00;100943.19;5071080;28;20483;-72
2023/03/18 08:47:13;;;;;;;17.65;8.00;;;;;;;13.14;100.00;100959.25;5070055;28;20032;-72
2023/03/18 08:49:39;;;;;;;18.40;8.38;;;;;;;13.20;100.00;100949.53;5071460;28;20031;-72
2023/03/18 08:52:05;;;;;;;14.35;7.95;;;;;;;13.21;100.00;100956.56;5080768;28;20031;-72
2023/03/18 08:54:31;;;;;;;20.55;7.88;;;;;;;13.26;100.00;100957.59;5090718;28;20039;-72
2023/03/18 08:56:56;;;;;;;14.38;7.20;;;;;;;13.30;100.00;100958.81;5090598;28;20032;-72
2023/03/18 08:59:22;;;;;;;11.43;6.88;;;;;;;13.35;100.00;100952.81;5087665;28;20056;-72
2023/03/18 09:01:48;;;;;;;14.23;7.03;;;;;;;13.38;100.00;100958.56;5069964;28;20052;-72
2023/03/18 09:04:13;;;;;;;31.70;7.55;;;;;;;13.45;100.00;100958.56;5071123;28;20527;-72
2023/03/18 09:06:40;;;;;;;15.57;8.00;;;;;;;13.51;100.00;100946.16;5070739;28;20028;-71
2023/03/18 09:09:05;;;;;;;14.32;7.45;;;;;;;13.55;100.00;100952.75;5071078;28;20032;-71
2023/03/18 09:11:31;;;;;;;18.15;6.75;;;;;;;13.61;100.00;100949.19;5070898;28;20032;-72
2023/03/18 09:13:56;;;;;;;15.52;6.78;;;;;;;13.65;100.00;100955.78;5069633;28;20024;-72
2023/03/18 09:16:22;;;;;;;16.10;7.13;;;;;;;13.75;100.00;100957.97;5072501;28;20024;-73
2023/03/18 09:18:47;;;;;;;12.73;6.05;;;;;;;13.82;100.00;100951.53;5070774;28;20033;-73
2023/03/18 09:21:12;;;;;;;14.88;6.25;;;;;;;13.99;100.00;100957.22;5069932;28;20028;-72
2023/03/18 09:23:38;;;;;;;11.27;5.80;;;;;;;14.06;100.00;100948.31;5070509;28;20092;-73
2023/03/18 09:26:04;;;;;;;12.32;6.65;;;;;;;14.16;100.00;100959.38;5070786;28;20102;-72
2023/03/18 09:28:30;;;;;;;14.75;7.03;;;;;;;14.18;100.00;100949.25;5070816;28;20048;-73
2023/03/18 09:30:55;;;;;;;12.63;6.10;;;;;;;14.13;100.00;100951.78;5070799;28;20025;-73
2023/03/18 09:33:21;;;;;;;10.65;5.72;;;;;;;14.23;100.00;100963.66;5070794;28;20138;-73
2023/03/18 09:35:48;;;;;;;12.02;5.95;;;;;;;14.35;99.83;100953.03;5070543;28;20032;-73
2023/03/18 09:38:15;;;;;;;13.02;6.38;;;;;;;14.44;98.56;100961.63;5089733;28;20031;-73
2023/03/18 09:41:08;;;;;;;14.70;6.25;;;;;;;14.59;98.58;100961.31;5070233;28;20021;-72
2023/03/18 09:43:51;;;;;;;13.15;6.53;;;;;;;14.80;98.65;100963.63;5089742;28;20059;-73
2023/03/18 09:46:25;;;;;;;10.32;5.65;;;;;;;15.12;99.92;100971.53;5089719;28;20035;-73
2023/03/18 09:48:58;;;;;;;10.07;5.03;;;;;;;15.32;93.78;100966.75;5088374;28;20028;-73
2023/03/18 09:51:40;;;;;;;10.48;5.63;;;;;;;15.57;94.76;100958.56;5089756;28;20020;-73
2023/03/18 09:54:21;;;;;;;;;;;;;;;15.82;97.47;100968.41;5090135;28;20024;-73
2023/03/18 09:56:49;;;;;;;11.10;4.55;;;;;;;15.89;91.34;100974.50;5089660;28;19911;-73
2023/03/18 09:59:15;;;;;;;11.10;5.65;;;;;;;15.97;90.60;100966.13;5084393;28;20032;-73
2023/03/18 10:01:42;;;;;;;8.48;4.63;;;;;;;15.84;88.29;100962.81;5070105;28;20029;-73
2023/03/18 10:04:20;;;;;;;13.80;5.70;;;;;;;15.91;91.71;100977.00;5069980;28;20025;-72
2023/03/18 10:06:47;;;;;;;13.93;5.30;;;;;;;15.94;89.59;100971.16;5077694;28;20030;-73
2023/03/18 10:09:19;;;;;;;9.48;4.72;;;;;;;16.04;89.28;100971.41;5070860;28;20016;-73
2023/03/18 10:11:51;;;;;;;9.02;5.57;;;;;;;16.14;89.72;100960.09;5069473;28;20379;-73
2023/03/18 10:14:36;;;;;;;9.98;4.95;;;;;;;16.18;88.33;100961.25;5069987;28;20120;-73
2023/03/18 10:17:18;;;;;;;13.35;4.55;;;;;;;16.17;89.87;100952.38;5070137;28;20028;-73
2023/03/18 10:20:12;;;;;;;9.85;5.35;;;;;;;16.27;90.05;100957.19;5084289;28;20036;-72
2023/03/18 10:22:56;;;;;;;7.38;4.40;;;;;;;16.19;85.61;100962.88;5069179;28;20452;-73
2023/03/18 10:25:27;;;;;;;6.43;3.35;;;;;;;16.17;85.81;100963.13;5069218;28;20642;-73
2023/03/18 10:28:22;;;;;;;9.98;4.38;;;;;;;16.25;88.42;100961.97;5079248;28;20028;-72
2023/03/18 10:30:47;;;;;;;7.88;4.40;;;;;;;16.49;89.44;100962.00;5072047;28;20471;-72
2023/03/18 10:33:26;;;;;;;11.93;4.60;;;;;;;16.53;85.14;100964.00;5072547;28;20034;-72
2023/03/18 10:36:12;;;;;;;6.75;3.97;;;;;;;16.53;85.67;100964.00;5073266;28;20020;-72
2023/03/18 10:38:45;;;;;;;7.22;3.75;;;;;;;16.55;86.77;100961.06;5072309;28;20035;-72
2023/03/18 10:41:33;;;;;;;7.72;3.85;;;;;;;16.65;88.48;100972.06;5073798;28;20052;-71
2023/03/18 10:44:03;;;;;;;6.18;3.33;;;;;;;16.70;85.40;100964.13;5072685;28;20040;-68
2023/03/18 10:46:30;;;;;;;7.35;3.78;;;;;;;16.73;82.90;100960.13;5073220;28;20025;-73
2023/03/18 10:49:10;;;;;;;7.55;4.13;;;;;;;16.75;84.35;100975.00;5072024;28;20047;-72
2023/03/18 10:51:42;;;;;;;11.10;3.72;;;;;;;16.74;83.00;100965.31;5072484;28;20035;-74
2023/03/18 10:54:30;;;;;;;5.20;4.05;;;;;;;16.79;81.02;100960.06;5072029;28;20036;-74
2023/03/18 10:56:55;;;;;;;6.93;3.78;;;;;;;16.74;81.28;100959.06;5072424;28;20020;-73
2023/03/18 10:59:23;;;;;;;6.78;3.42;;;;;;;16.79;81.23;100951.13;5072329;28;20040;-72
2023/03/18 11:02:21;;;;;;;7.05;3.92;;;;;;;16.92;83.46;100950.88;5072007;28;20032;-73
2023/03/18 11:04:51;;;;;;;7.72;4.07;;;;;;;16.84;78.89;100948.56;5071457;28;20126;-72
2023/03/18 11:07:24;;;;;;;5.47;3.50;;;;;;;17.03;81.71;100957.34;5072006;28;20036;-73
2023/03/18 11:09:50;;;;;;;6.60;3.20;;;;;;;17.17;80.90;100949.81;5072329;28;20468;-72
2023/03/18 11:12:27;;;;;;;6.97;2.97;;;;;;;17.38;78.85;100949.16;5071441;28;20039;-73